Terminal Aerodrome Forecast
Issued by NWS

Home | Current Version | Previous Version | Text Only | Print | Product List | Glossary On
Versions: 1 2 3 4 5 6 7 8 9 10 11 12 13 14 15 16 17
000
FTUS43 KJKL 250100 AAA
TAFSME
TAF AMD
KSME 250138Z 2502/2524 26010KT P6SM -SHRA OVC020
     FM251000 25006KT P6SM BKN025
     FM251800 23005KT P6SM SCT025=

USA.gov is the U.S. government's official web portal to all federal, state and local government web resources and services.